createdAt,value
2018-06-02T00:02:25.724Z,27.37
2018-06-02T00:04:51.479Z,26.73
2018-06-02T00:07:17.255Z,25.83
2018-06-02T00:09:42.999Z,26.43
2018-06-02T00:12:08.783Z,24.83
2018-06-02T00:14:34.532Z,24.47
2018-06-02T00:17:00.303Z,24.10
2018-06-02T00:19:26.087Z,24.97
2018-06-02T00:21:52.003Z,25.90
2018-06-02T00:24:17.811Z,26.73
2018-06-02T00:26:43.579Z,27.80
2018-06-02T00:29:09.323Z,25.10
2018-06-02T00:31:35.107Z,27.63
2018-06-02T00:34:00.879Z,27.03
2018-06-02T00:36:26.650Z,27.10
2018-06-02T00:38:52.407Z,25.93
2018-06-02T00:41:18.155Z,26.63
2018-06-02T00:43:43.995Z,26.93
2018-06-02T00:46:09.804Z,27.60
2018-06-02T00:48:35.555Z,26.33
2018-06-02T00:51:01.299Z,24.83
2018-06-02T00:53:27.067Z,26.13
2018-06-02T00:55:52.881Z,27.07
2018-06-02T00:58:18.650Z,27.90
2018-06-02T01:00:44.395Z,26.70
2018-06-02T01:03:10.191Z,29.73
2018-06-02T01:05:35.939Z,28.00
2018-06-02T01:08:01.712Z,27.37
2018-06-02T01:10:27.448Z,30.70
2018-06-02T01:12:53.195Z,28.30
2018-06-02T01:15:18.973Z,28.47
2018-06-02T01:17:44.739Z,28.97
2018-06-02T01:20:10.484Z,29.30
2018-06-02T01:22:36.542Z,29.60
2018-06-02T01:25:02.375Z,31.83
2018-06-02T01:27:28.159Z,32.40
2018-06-02T01:29:53.905Z,29.03
2018-06-02T01:32:19.864Z,30.83
2018-06-02T01:34:45.612Z,30.33
2018-06-02T01:37:11.413Z,28.60
2018-06-02T01:39:37.143Z,30.20
2018-06-02T01:42:02.978Z,29.63
2018-06-02T01:44:28.714Z,31.53
2018-06-02T01:46:54.480Z,29.40
2018-06-02T01:49:20.227Z,31.57
2018-06-02T01:51:45.988Z,31.03
2018-06-02T01:54:11.751Z,31.37
2018-06-02T01:56:37.506Z,29.43
2018-06-02T01:59:03.412Z,30.10
2018-06-02T02:01:29.255Z,32.90
2018-06-02T02:03:55.024Z,31.77
2018-06-02T02:06:20.900Z,31.37
2018-06-02T02:08:46.759Z,31.30
2018-06-02T02:11:12.510Z,34.43
2018-06-02T02:13:38.299Z,33.03
2018-06-02T02:16:04.068Z,33.90
2018-06-02T02:18:29.843Z,36.30
2018-06-02T02:20:55.587Z,34.97
2018-06-02T02:23:21.363Z,36.63
2018-06-02T02:25:47.093Z,35.53
2018-06-02T02:28:12.865Z,37.00
2018-06-02T02:30:38.631Z,37.17
2018-06-02T02:33:04.727Z,36.77
2018-06-02T02:35:30.459Z,38.00
2018-06-02T02:37:56.235Z,36.93
2018-06-02T02:40:21.991Z,40.77
2018-06-02T02:42:47.794Z,43.13
2018-06-02T02:45:13.588Z,45.03
2018-06-02T02:47:39.355Z,50.90
2018-06-02T02:50:05.126Z,57.40
2018-06-02T02:52:30.910Z,59.17
2018-06-02T02:54:56.763Z,66.30
2018-06-02T02:57:22.703Z,61.50
2018-06-02T02:59:48.466Z,66.60
2018-06-02T03:02:14.215Z,79.13
2018-06-02T03:04:40.161Z,77.60
2018-06-02T03:07:05.936Z,78.67
2018-06-02T03:09:31.699Z,87.80
2018-06-02T03:11:57.443Z,85.77
2018-06-02T03:14:23.245Z,92.90
2018-06-02T03:16:48.979Z,88.87
2018-06-02T03:19:14.799Z,95.10
2018-06-02T03:21:40.740Z,92.03
2018-06-02T03:24:06.507Z,97.83
2018-06-02T03:26:32.260Z,97.60
2018-06-02T03:28:58.204Z,97.60
2018-06-02T03:31:23.946Z,103.03
2018-06-02T03:33:49.698Z,97.53
2018-06-02T03:36:15.439Z,104.90
2018-06-02T03:38:41.432Z,104.87
2018-06-02T03:41:07.235Z,102.37
2018-06-02T03:43:33.003Z,106.67
2018-06-02T03:45:58.769Z,111.40
2018-06-02T03:48:24.539Z,105.67
2018-06-02T03:50:50.278Z,106.00
2018-06-02T03:53:16.073Z,104.63
2018-06-02T03:55:41.883Z,110.70
2018-06-02T03:58:07.631Z,104.47
2018-06-02T04:00:33.387Z,111.30
2018-06-02T04:02:59.165Z,107.33
2018-06-02T04:05:24.989Z,108.07
2018-06-02T04:07:50.744Z,101.63
2018-06-02T04:10:16.656Z,105.03
2018-06-02T04:12:42.535Z,95.20
2018-06-02T04:15:08.270Z,84.73
2018-06-02T04:17:34.032Z,86.70
2018-06-02T04:19:59.799Z,78.93
2018-06-02T04:22:25.547Z,85.40
2018-06-02T04:24:51.623Z,81.37
2018-06-02T04:27:17.371Z,74.50
2018-06-02T04:29:50.071Z,84.60
2018-06-02T04:32:15.816Z,84.67
2018-06-02T04:34:41.582Z,78.40
2018-06-02T04:37:07.327Z,78.40
2018-06-02T04:39:33.095Z,72.33
2018-06-02T04:41:58.835Z,79.23
2018-06-02T04:44:24.614Z,75.40
2018-06-02T04:46:50.395Z,82.33
2018-06-02T04:49:16.160Z,76.17
2018-06-02T04:51:41.944Z,74.70
2018-06-02T04:54:07.703Z,85.50
2018-06-02T04:56:33.440Z,74.43
2018-06-02T04:58:59.210Z,74.23
2018-06-02T05:01:24.967Z,72.67
2018-06-02T05:03:50.748Z,79.13
2018-06-02T05:06:16.520Z,73.33
2018-06-02T05:08:42.303Z,73.83
2018-06-02T05:11:08.099Z,79.10
2018-06-02T05:13:33.832Z,80.40
2018-06-02T05:15:59.599Z,81.73
2018-06-02T05:18:40.244Z,77.47
2018-06-02T05:21:06.007Z,77.67
2018-06-02T05:23:31.764Z,83.30
2018-06-02T05:25:58.526Z,85.70
2018-06-02T05:28:24.273Z,81.03
2018-06-02T05:30:50.039Z,82.27
2018-06-02T05:33:15.895Z,83.30
2018-06-02T05:35:41.651Z,89.57
2018-06-02T05:38:07.480Z,76.07
2018-06-02T05:40:33.252Z,78.60
2018-06-02T05:42:58.999Z,76.97
2018-06-02T05:45:24.756Z,79.63
2018-06-02T05:47:50.557Z,83.63
2018-06-02T05:50:16.435Z,74.63
2018-06-02T05:52:42.293Z,83.20
2018-06-02T05:55:08.052Z,79.50
2018-06-02T05:57:33.873Z,74.47
2018-06-02T05:59:59.734Z,80.20
2018-06-02T06:02:25.451Z,80.70
2018-06-02T06:04:51.247Z,76.03
2018-06-02T06:07:16.988Z,80.17
2018-06-02T06:09:42.743Z,83.27
2018-06-02T06:12:08.547Z,75.00
2018-06-02T06:14:34.312Z,75.37
2018-06-02T06:17:00.075Z,81.13
2018-06-02T06:19:25.842Z,64.33
2018-06-02T06:21:51.683Z,67.67
2018-06-02T06:24:17.444Z,69.77
2018-06-02T06:26:43.352Z,58.27
2018-06-02T06:29:09.117Z,59.40
2018-06-02T06:31:34.892Z,64.43
2018-06-02T06:34:00.639Z,57.87
2018-06-02T06:36:26.652Z,60.70
2018-06-02T06:38:52.444Z,51.33
2018-06-02T06:41:18.183Z,55.17
2018-06-02T06:43:43.965Z,58.13
2018-06-02T06:46:09.715Z,57.10
2018-06-02T06:48:35.488Z,59.33
2018-06-02T06:51:01.287Z,56.37
2018-06-02T06:53:27.038Z,52.53
2018-06-02T06:55:52.808Z,58.00
2018-06-02T06:58:18.572Z,54.47
2018-06-02T07:00:44.368Z,53.03
2018-06-02T07:03:10.148Z,50.40
2018-06-02T07:05:35.888Z,48.90
2018-06-02T07:08:01.732Z,56.87
2018-06-02T07:10:27.485Z,52.27
2018-06-02T07:12:54.965Z,54.07
2018-06-02T07:15:20.744Z,49.77
2018-06-02T07:17:46.556Z,47.87
2018-06-02T07:20:12.305Z,48.00
2018-06-02T07:22:38.072Z,46.10
2018-06-02T07:25:03.824Z,45.37
2018-06-02T07:27:29.660Z,42.23
2018-06-02T07:29:55.376Z,46.23
2018-06-02T07:32:21.208Z,43.60
2018-06-02T07:34:46.984Z,41.17
2018-06-02T07:37:12.779Z,36.70
2018-06-02T07:39:38.544Z,38.63
2018-06-02T07:42:04.307Z,42.60
2018-06-02T07:44:30.089Z,37.23
2018-06-02T07:46:55.845Z,42.73
2018-06-02T07:49:21.629Z,36.43
2018-06-02T07:51:47.407Z,34.87
2018-06-02T07:54:13.171Z,38.00
2018-06-02T07:56:38.945Z,42.30
2018-06-02T07:59:04.724Z,40.97
2018-06-02T08:01:30.511Z,34.03
2018-06-02T08:03:56.274Z,36.67
2018-06-02T08:06:22.031Z,34.00
2018-06-02T08:08:47.816Z,31.00
2018-06-02T08:11:13.578Z,28.17
2018-06-02T08:13:39.336Z,24.13
2018-06-02T08:16:05.088Z,25.37
2018-06-02T08:18:30.848Z,23.10
2018-06-02T08:20:56.603Z,22.63
2018-06-02T08:23:22.385Z,23.10
2018-06-02T08:25:48.140Z,22.63
2018-06-02T08:28:13.911Z,23.33
2018-06-02T08:30:39.663Z,22.20
2018-06-02T08:33:05.431Z,19.30
2018-06-02T08:35:31.314Z,23.33
2018-06-02T08:37:57.075Z,21.60
2018-06-02T08:40:22.948Z,21.53
2018-06-02T08:42:48.764Z,22.50
2018-06-02T08:45:14.519Z,21.47
2018-06-02T08:47:40.284Z,23.87
2018-06-02T08:50:06.101Z,20.27
2018-06-02T08:52:31.888Z,20.03
2018-06-02T08:54:57.635Z,20.27
2018-06-02T08:57:23.433Z,18.67
2018-06-02T08:59:49.467Z,17.30
2018-06-02T09:02:15.241Z,19.30
2018-06-02T09:04:41.008Z,18.87
2018-06-02T09:07:09.691Z,21.17
2018-06-02T09:09:35.511Z,20.03
2018-06-02T09:12:01.296Z,18.40
2018-06-02T09:14:27.027Z,20.50
2018-06-02T09:16:52.784Z,19.93
2018-06-02T09:19:18.559Z,17.93
2018-06-02T09:21:44.327Z,20.33
2018-06-02T09:24:10.095Z,18.87
2018-06-02T09:26:35.843Z,20.23
2018-06-02T09:29:01.612Z,17.87
2018-06-02T09:31:27.356Z,18.00
2018-06-02T09:33:53.396Z,13.70
2018-06-02T09:36:19.170Z,15.63
2018-06-02T09:38:45.219Z,14.63
2018-06-02T09:41:10.984Z,15.13
2018-06-02T09:43:36.759Z,14.23
2018-06-02T09:46:02.523Z,15.53
2018-06-02T09:48:28.293Z,15.27
2018-06-02T09:50:54.135Z,15.37
2018-06-02T09:53:20.702Z,15.97
2018-06-02T09:55:46.469Z,13.10
2018-06-02T09:58:12.235Z,15.87
2018-06-02T10:00:37.979Z,14.63
2018-06-02T10:03:03.743Z,13.77
2018-06-02T10:05:29.540Z,13.33
2018-06-02T10:07:55.303Z,11.13
2018-06-02T10:10:21.155Z,10.13
2018-06-02T10:12:46.892Z,11.83
2018-06-02T10:15:12.631Z,11.53
2018-06-02T10:17:39.200Z,11.63
2018-06-02T10:20:04.967Z,13.13
2018-06-02T10:22:30.722Z,12.90
2018-06-02T10:24:56.492Z,11.70
2018-06-02T10:27:22.484Z,13.40
2018-06-02T10:29:48.260Z,13.23
2018-06-02T10:32:14.019Z,13.00
2018-06-02T10:34:39.789Z,16.67
2018-06-02T10:37:05.589Z,14.00
2018-06-02T10:39:31.326Z,13.87
2018-06-02T10:41:57.072Z,12.60
2018-06-02T10:44:22.849Z,13.60
2018-06-02T10:46:48.595Z,11.50
2018-06-02T10:49:14.370Z,14.37
2018-06-02T10:51:40.228Z,14.90
2018-06-02T10:54:05.995Z,14.93
2018-06-02T10:56:31.763Z,13.50
2018-06-02T10:58:57.544Z,13.70
2018-06-02T11:01:23.368Z,12.77
2018-06-02T11:03:49.127Z,15.30
2018-06-02T11:06:14.883Z,14.67
2018-06-02T11:08:40.664Z,13.57
2018-06-02T11:11:06.427Z,12.70
2018-06-02T11:13:32.248Z,11.43
2018-06-02T11:15:58.051Z,12.13
2018-06-02T11:18:23.803Z,12.17
2018-06-02T11:20:49.567Z,11.80
2018-06-02T11:23:15.328Z,11.87
2018-06-02T11:25:41.373Z,11.47
2018-06-02T11:28:07.111Z,14.47
2018-06-02T11:30:32.879Z,13.90
2018-06-02T11:32:58.649Z,14.17
2018-06-02T11:35:24.483Z,14.00
2018-06-02T11:37:50.232Z,17.50
2018-06-02T11:40:16.003Z,14.63
2018-06-02T11:42:41.754Z,15.47
2018-06-02T11:45:07.539Z,13.10
2018-06-02T11:47:33.288Z,15.90
2018-06-02T11:50:05.884Z,19.37
2018-06-02T11:52:31.623Z,18.50
2018-06-02T11:54:57.424Z,19.67
2018-06-02T11:57:23.176Z,19.90
2018-06-02T11:59:49.043Z,20.00
2018-06-02T12:02:14.769Z,21.00
2018-06-02T12:04:40.541Z,18.87
2018-06-02T12:07:06.291Z,23.80
2018-06-02T12:09:32.097Z,25.27
2018-06-02T12:11:58.635Z,27.17
2018-06-02T12:14:24.404Z,27.47
2018-06-02T12:16:50.153Z,30.80
2018-06-02T12:19:15.919Z,32.80
2018-06-02T12:21:41.780Z,34.30
2018-06-02T12:24:07.527Z,43.47
2018-06-02T12:26:33.291Z,48.00
2018-06-02T12:28:59.076Z,40.30
2018-06-02T12:31:24.869Z,45.67
2018-06-02T12:33:50.623Z,45.73
2018-06-02T12:36:16.418Z,46.47
2018-06-02T12:38:42.180Z,50.60
2018-06-02T12:41:07.944Z,42.97
2018-06-02T12:46:24.712Z,44.20
2018-06-02T12:48:50.474Z,45.10
2018-06-02T12:51:16.558Z,43.10
2018-06-02T12:53:42.304Z,46.80
2018-06-02T12:56:08.062Z,40.50
2018-06-02T12:58:33.819Z,45.40
2018-06-02T13:00:59.684Z,42.47
2018-06-02T13:03:25.423Z,34.80
2018-06-02T13:05:51.203Z,39.43
2018-06-02T13:08:16.960Z,39.00
2018-06-02T13:10:42.731Z,34.63
2018-06-02T13:13:08.488Z,34.10
2018-06-02T13:15:34.291Z,31.87
2018-06-02T13:18:00.027Z,31.30
2018-06-02T13:20:25.793Z,30.70
2018-06-02T13:22:51.551Z,32.40
2018-06-02T13:25:17.340Z,36.10
2018-06-02T13:27:43.082Z,33.77
2018-06-02T13:30:08.839Z,38.67
2018-06-02T13:32:34.599Z,38.37
2018-06-02T13:35:00.367Z,41.33
2018-06-02T13:37:26.129Z,38.30
2018-06-02T13:39:51.895Z,35.90
2018-06-02T13:42:17.663Z,35.70
2018-06-02T13:44:43.411Z,36.30
2018-06-02T13:47:09.193Z,38.43
2018-06-02T13:49:34.944Z,38.47
2018-06-02T13:52:00.699Z,33.50
2018-06-02T13:54:26.465Z,38.60
2018-06-02T13:56:52.231Z,33.93
2018-06-02T13:59:17.987Z,33.63
2018-06-02T14:01:43.759Z,37.77
2018-06-02T14:04:09.513Z,38.67
2018-06-02T14:06:35.323Z,35.83
2018-06-02T14:09:00.994Z,37.20
2018-06-02T14:11:26.760Z,36.23
2018-06-02T14:13:52.536Z,38.70
2018-06-02T14:16:18.440Z,36.53
2018-06-02T14:18:44.247Z,36.70
2018-06-02T14:21:09.976Z,34.80
2018-06-02T14:23:35.752Z,33.77
2018-06-02T14:26:01.540Z,33.03
2018-06-02T14:28:27.367Z,37.43
2018-06-02T14:30:53.149Z,38.47
2018-06-02T14:33:18.872Z,36.67
2018-06-02T14:35:44.651Z,34.23
2018-06-02T14:38:10.431Z,37.10
2018-06-02T14:40:36.164Z,41.47
2018-06-02T14:43:02.092Z,35.33
2018-06-02T14:45:27.851Z,49.17
2018-06-02T14:47:53.696Z,44.97
2018-06-02T14:50:19.476Z,46.37
2018-06-02T14:52:45.309Z,43.50
2018-06-02T14:55:11.109Z,48.60
2018-06-02T14:57:36.925Z,41.10
2018-06-02T15:00:02.952Z,48.33
2018-06-02T15:02:28.732Z,42.60
2018-06-02T15:04:54.607Z,42.30
2018-06-02T15:07:20.388Z,46.43
2018-06-02T15:09:46.136Z,46.30
2018-06-02T15:12:11.935Z,40.47
2018-06-02T15:14:37.687Z,43.00
2018-06-02T15:17:03.464Z,45.70
2018-06-02T15:19:29.220Z,45.70
2018-06-02T15:21:54.997Z,45.17
2018-06-02T15:24:20.858Z,47.57
2018-06-02T15:26:46.661Z,45.17
2018-06-02T15:29:12.424Z,43.00
2018-06-02T15:31:38.168Z,41.37
2018-06-02T15:34:04.022Z,44.33
2018-06-02T15:36:30.052Z,45.33
2018-06-02T15:38:55.773Z,39.93
2018-06-02T15:41:21.578Z,39.47
2018-06-02T15:43:47.331Z,41.87
2018-06-02T15:46:13.113Z,45.70
2018-06-02T15:48:38.919Z,44.70
2018-06-02T15:51:04.642Z,42.70
2018-06-02T15:53:30.399Z,45.17
2018-06-02T15:55:56.206Z,44.73
2018-06-02T15:58:21.968Z,42.83
2018-06-02T16:00:47.727Z,42.13
2018-06-02T16:03:13.495Z,41.00
2018-06-02T16:05:39.257Z,42.67
2018-06-02T16:08:05.071Z,39.43
2018-06-02T16:10:30.836Z,46.70
2018-06-02T16:12:56.623Z,40.87
2018-06-02T16:15:22.398Z,43.27
2018-06-02T16:17:48.167Z,43.77
2018-06-02T16:20:13.940Z,49.90
2018-06-02T16:22:39.691Z,41.37
2018-06-02T16:25:05.468Z,46.17
2018-06-02T16:27:31.220Z,45.97
2018-06-02T16:29:56.985Z,40.90
2018-06-02T16:32:22.747Z,45.70
2018-06-02T16:34:48.812Z,44.90
2018-06-02T16:37:14.559Z,44.53
2018-06-02T16:39:40.316Z,40.70
2018-06-02T16:42:06.168Z,44.43
2018-06-02T16:44:31.928Z,40.20
2018-06-02T16:46:57.764Z,41.07
2018-06-02T16:49:23.507Z,48.43
2018-06-02T16:51:49.299Z,41.87
2018-06-02T16:54:15.064Z,44.40
2018-06-02T16:56:40.819Z,48.93
2018-06-02T16:59:06.590Z,41.03
2018-06-02T17:01:32.337Z,38.13
2018-06-02T17:03:58.092Z,39.60
2018-06-02T17:06:23.855Z,38.30
2018-06-02T17:08:49.623Z,39.10
2018-06-02T17:11:15.492Z,39.50
2018-06-02T17:13:41.256Z,43.50
2018-06-02T17:16:07.016Z,40.33
2018-06-02T17:18:32.791Z,39.87
2018-06-02T17:20:58.548Z,41.90
2018-06-02T17:23:24.356Z,40.43
2018-06-02T17:25:50.108Z,40.33
2018-06-02T17:28:15.863Z,38.87
2018-06-02T17:30:41.680Z,37.83
2018-06-02T17:33:07.436Z,39.50
2018-06-02T17:35:33.360Z,39.63
2018-06-02T17:37:59.123Z,35.50
2018-06-02T17:40:24.866Z,38.00
2018-06-02T17:42:50.632Z,34.33
2018-06-02T17:45:16.388Z,35.00
2018-06-02T17:47:42.180Z,35.97
2018-06-02T17:50:08.061Z,33.57
2018-06-02T17:52:33.889Z,34.23
2018-06-02T17:54:59.675Z,33.47
2018-06-02T17:57:25.423Z,33.00
2018-06-02T17:59:51.187Z,31.20
2018-06-02T18:02:17.069Z,31.03
2018-06-02T18:04:42.847Z,33.17
2018-06-02T18:07:08.623Z,29.53
2018-06-02T18:09:34.388Z,27.20
2018-06-02T18:12:00.138Z,30.40
2018-06-02T18:14:26.105Z,30.67
2018-06-02T18:16:51.874Z,30.03
2018-06-02T18:19:17.643Z,26.93
2018-06-02T18:21:43.407Z,28.70
2018-06-02T18:24:09.175Z,35.90
2018-06-02T18:26:34.942Z,27.80
2018-06-02T18:29:01.022Z,30.57
2018-06-02T18:31:26.787Z,33.07
2018-06-02T18:33:52.543Z,29.83
2018-06-02T18:36:18.328Z,31.27
2018-06-02T18:38:44.076Z,31.10
2018-06-02T18:41:09.891Z,31.47
2018-06-02T18:43:35.635Z,30.27
2018-06-02T18:46:01.404Z,32.63
2018-06-02T18:48:27.187Z,31.30
2018-06-02T18:50:53.135Z,31.87
2018-06-02T18:53:18.931Z,29.00
2018-06-02T18:55:44.783Z,27.70
2018-06-02T18:58:10.557Z,32.60
2018-06-02T19:00:36.332Z,36.73
2018-06-02T19:03:02.092Z,30.77
2018-06-02T19:05:27.883Z,30.50
2018-06-02T19:07:53.648Z,30.87
2018-06-02T19:10:19.420Z,31.00
2018-06-02T19:12:45.168Z,29.63
2018-06-02T19:15:10.935Z,31.33
2018-06-02T19:17:36.692Z,32.57
2018-06-02T19:20:02.538Z,34.37
2018-06-02T19:22:28.315Z,32.53
2018-06-02T19:24:54.068Z,30.20
2018-06-02T19:27:19.844Z,29.37
2018-06-02T19:29:45.611Z,32.13
2018-06-02T19:32:11.387Z,33.33
2018-06-02T19:34:37.135Z,31.70
2018-06-02T19:37:02.952Z,31.93
2018-06-02T19:39:28.725Z,33.23
2018-06-02T19:41:54.847Z,32.87
2018-06-02T19:44:20.630Z,31.73
2018-06-02T19:46:46.384Z,38.93
2018-06-02T19:49:12.148Z,34.93
2018-06-02T19:51:38.063Z,36.43
2018-06-02T19:54:03.812Z,33.37
2018-06-02T19:56:29.587Z,37.17
2018-06-02T19:58:55.351Z,36.23
2018-06-02T20:01:21.112Z,34.87
2018-06-02T20:03:46.905Z,33.20
2018-06-02T20:06:12.663Z,34.60
2018-06-02T20:08:38.418Z,34.83
2018-06-02T20:11:04.207Z,38.33
2018-06-02T20:13:29.958Z,34.77
2018-06-02T20:15:55.730Z,40.47
2018-06-02T20:18:21.486Z,35.23
2018-06-02T20:20:47.443Z,37.80
2018-06-02T20:23:13.199Z,40.90
2018-06-02T20:25:38.995Z,37.83
2018-06-02T20:28:04.755Z,39.87
2018-06-02T20:30:30.523Z,36.90
2018-06-02T20:32:56.299Z,36.17
2018-06-02T20:35:22.047Z,38.20
2018-06-02T20:37:47.799Z,37.57
2018-06-02T20:40:13.607Z,36.37
2018-06-02T20:42:39.391Z,35.37
2018-06-02T20:45:05.151Z,36.17
2018-06-02T20:47:30.933Z,40.50
2018-06-02T20:49:56.686Z,41.67
2018-06-02T20:52:22.487Z,44.40
2018-06-02T20:54:48.244Z,40.90
2018-06-02T20:57:14.017Z,45.07
2018-06-02T20:59:39.787Z,39.90
2018-06-02T21:02:05.650Z,39.53
2018-06-02T21:04:31.408Z,40.80
2018-06-02T21:06:57.236Z,39.50
2018-06-02T21:09:23.004Z,41.23
2018-06-02T21:11:48.852Z,41.57
2018-06-02T21:14:14.621Z,41.53
2018-06-02T21:16:40.377Z,41.30
2018-06-02T21:19:06.153Z,42.40
2018-06-02T21:21:32.159Z,43.30
2018-06-02T21:23:57.939Z,37.17
2018-06-02T21:26:23.815Z,41.63
2018-06-02T21:28:49.574Z,43.10
2018-06-02T21:31:15.397Z,40.57
2018-06-02T21:33:42.505Z,42.67
2018-06-02T21:36:08.247Z,42.70
2018-06-02T21:38:34.020Z,42.20
2018-06-02T21:40:59.772Z,44.07
2018-06-02T21:43:25.540Z,44.57
2018-06-02T21:45:51.287Z,46.97
2018-06-02T21:48:17.186Z,48.47
2018-06-02T21:50:43.247Z,45.77
2018-06-02T21:53:09.016Z,50.23
2018-06-02T21:55:34.767Z,44.60
2018-06-02T21:58:01.262Z,50.83
2018-06-02T22:00:27.033Z,48.77
2018-06-02T22:02:52.816Z,51.57
2018-06-02T22:05:18.560Z,49.37
2018-06-02T22:07:44.294Z,49.43
2018-06-02T22:10:10.040Z,53.77
2018-06-02T22:12:35.803Z,59.33
2018-06-02T22:15:01.556Z,56.27
2018-06-02T22:17:27.329Z,55.77
2018-06-02T22:19:53.075Z,60.33
2018-06-02T22:22:18.863Z,55.37
2018-06-02T22:24:44.604Z,63.00
2018-06-02T22:27:10.596Z,57.00
2018-06-02T22:29:36.384Z,54.70
2018-06-02T22:32:02.145Z,61.70
2018-06-02T22:34:27.936Z,52.90
2018-06-02T22:36:53.675Z,61.57
2018-06-02T22:39:19.464Z,57.80
2018-06-02T22:41:45.200Z,55.50
2018-06-02T22:44:11.000Z,52.07
2018-06-02T22:46:36.767Z,49.03
2018-06-02T22:49:02.659Z,45.07
2018-06-02T22:51:40.777Z,48.53
2018-06-02T22:54:06.555Z,44.13
2018-06-02T22:56:32.310Z,47.70
2018-06-02T22:58:58.099Z,53.70
2018-06-02T23:01:23.899Z,45.97
2018-06-02T23:03:49.664Z,49.43
2018-06-02T23:06:15.463Z,52.00
2018-06-02T23:08:41.240Z,44.17
2018-06-02T23:11:07.004Z,48.23
2018-06-02T23:13:32.793Z,47.53
2018-06-02T23:15:58.527Z,52.10
2018-06-02T23:18:24.286Z,50.80
2018-06-02T23:20:50.063Z,49.27
2018-06-02T23:23:15.803Z,50.13
2018-06-02T23:25:41.558Z,51.73
2018-06-02T23:28:07.315Z,52.10
2018-06-02T23:30:33.131Z,51.27
2018-06-02T23:32:58.879Z,59.23
2018-06-02T23:35:24.652Z,52.53
2018-06-02T23:37:50.399Z,55.23
2018-06-02T23:40:16.181Z,60.73
2018-06-02T23:42:41.929Z,56.03
2018-06-02T23:45:07.706Z,52.07
2018-06-02T23:47:33.467Z,59.80
2018-06-02T23:49:59.236Z,56.33
2018-06-02T23:52:25.024Z,55.23
2018-06-02T23:54:50.791Z,56.60
2018-06-02T23:57:16.539Z,58.10
2018-06-02T23:59:42.329Z,49.97
